sensor_id;sensor_type;location;lat;lon;timestamp;pressure;altitude;pressure_sealevel;temperature;humidity
11605;BME280;5858;43.076;25.626;2024-03-08T00:00:44;99376.78;;;6.65;100.00
11605;BME280;5858;43.076;25.626;2024-03-08T00:03:26;99440.06;;;7.13;100.00
11605;BME280;5858;43.076;25.626;2024-03-08T00:06:03;99387.03;;;6.86;100.00
11605;BME280;5858;43.076;25.626;2024-03-08T00:08:30;99442.50;;;7.33;100.00
11605;BME280;5858;43.076;25.626;2024-03-08T00:10:57;99442.63;;;7.23;100.00
11605;BME280;5858;43.076;25.626;2024-03-08T00:13:24;99496.72;;;7.66;100.00
11605;BME280;5858;43.076;25.626;2024-03-08T00:15:52;99332.66;;;6.54;100.00
11605;BME280;5858;43.076;25.626;2024-03-08T00:18:19;99504.38;;;7.61;100.00
11605;BME280;5858;43.076;25.626;2024-03-08T00:20:46;99465.59;;;7.32;100.00
11605;BME280;5858;43.076;25.626;2024-03-08T00:23:14;99476.47;;;7.39;100.00
11605;BME280;5858;43.076;25.626;2024-03-08T00:25:41;99492.09;;;7.42;100.00
11605;BME280;5858;43.076;25.626;2024-03-08T00:28:08;99432.84;;;7.06;100.00
11605;BME280;5858;43.076;25.626;2024-03-08T00:30:38;99369.34;;;6.69;100.00
11605;BME280;5858;43.076;25.626;2024-03-08T00:33:05;99426.69;;;7.05;100.00
11605;BME280;5858;43.076;25.626;2024-03-08T00:35:33;99425.56;;;7.08;100.00
11605;BME280;5858;43.076;25.626;2024-03-08T00:38:00;99419.41;;;7.07;100.00
11605;BME280;5858;43.076;25.626;2024-03-08T00:40:29;99464.09;;;7.30;100.00
11605;BME280;5858;43.076;25.626;2024-03-08T00:42:56;99362.81;;;6.63;100.00
11605;BME280;5858;43.076;25.626;2024-03-08T00:45:23;99398.94;;;7.08;100.00
11605;BME280;5858;43.076;25.626;2024-03-08T00:47:50;99469.94;;;7.33;100.00
11605;BME280;5858;43.076;25.626;2024-03-08T00:50:17;99391.75;;;7.00;100.00
11605;BME280;5858;43.076;25.626;2024-03-08T00:52:44;99462.78;;;7.34;100.00
11605;BME280;5858;43.076;25.626;2024-03-08T00:55:12;99490.56;;;7.31;100.00
11605;BME280;5858;43.076;25.626;2024-03-08T00:57:40;99489.09;;;7.37;100.00
11605;BME280;5858;43.076;25.626;2024-03-08T01:00:08;99389.13;;;6.48;100.00
11605;BME280;5858;43.076;25.626;2024-03-08T01:02:37;99486.91;;;7.06;100.00
11605;BME280;5858;43.076;25.626;2024-03-08T01:05:05;99438.34;;;6.78;100.00
11605;BME280;5858;43.076;25.626;2024-03-08T01:07:33;99364.72;;;6.27;100.00
11605;BME280;5858;43.076;25.626;2024-03-08T01:10:00;99438.41;;;6.86;100.00
11605;BME280;5858;43.076;25.626;2024-03-08T01:12:27;99378.38;;;6.58;100.00
11605;BME280;5858;43.076;25.626;2024-03-08T01:14:56;99367.13;;;6.64;100.00
11605;BME280;5858;43.076;25.626;2024-03-08T01:17:23;99485.25;;;7.31;100.00
11605;BME280;5858;43.076;25.626;2024-03-08T01:19:51;99498.19;;;7.26;100.00
11605;BME280;5858;43.076;25.626;2024-03-08T01:22:18;99303.06;;;5.97;100.00
11605;BME280;5858;43.076;25.626;2024-03-08T01:24:46;99487.38;;;7.02;100.00
11605;BME280;5858;43.076;25.626;2024-03-08T01:27:13;99438.16;;;6.72;100.00
11605;BME280;5858;43.076;25.626;2024-03-08T01:29:41;99321.94;;;5.94;100.00
11605;BME280;5858;43.076;25.626;2024-03-08T01:32:10;99493.78;;;6.91;100.00
11605;BME280;5858;43.076;25.626;2024-03-08T01:34:37;99489.81;;;6.69;100.00
11605;BME280;5858;43.076;25.626;2024-03-08T01:37:04;99489.59;;;6.62;100.00
11605;BME280;5858;43.076;25.626;2024-03-08T01:39:32;99365.66;;;5.55;100.00
11605;BME280;5858;43.076;25.626;2024-03-08T01:41:59;99367.84;;;5.69;100.00
11605;BME280;5858;43.076;25.626;2024-03-08T01:44:26;99401.78;;;5.65;100.00
11605;BME280;5858;43.076;25.626;2024-03-08T01:46:55;99504.19;;;6.23;100.00
11605;BME280;5858;43.076;25.626;2024-03-08T01:49:24;99398.88;;;5.41;100.00
11605;BME280;5858;43.076;25.626;2024-03-08T01:51:54;99481.97;;;5.96;100.00
11605;BME280;5858;43.076;25.626;2024-03-08T01:54:23;99375.56;;;5.07;100.00
11605;BME280;5858;43.076;25.626;2024-03-08T01:56:51;99398.31;;;5.37;100.00
11605;BME280;5858;43.076;25.626;2024-03-08T01:59:19;99465.00;;;5.80;100.00
11605;BME280;5858;43.076;25.626;2024-03-08T02:01:46;99483.41;;;5.91;100.00
11605;BME280;5858;43.076;25.626;2024-03-08T02:04:13;99482.28;;;5.93;100.00
11605;BME280;5858;43.076;25.626;2024-03-08T02:06:42;99462.50;;;5.78;100.00
11605;BME280;5858;43.076;25.626;2024-03-08T02:09:10;99508.38;;;5.98;100.00
11605;BME280;5858;43.076;25.626;2024-03-08T02:11:37;99510.66;;;5.93;100.00
11605;BME280;5858;43.076;25.626;2024-03-08T02:14:04;99463.50;;;5.67;100.00
11605;BME280;5858;43.076;25.626;2024-03-08T02:16:32;99510.78;;;5.91;100.00
11605;BME280;5858;43.076;25.626;2024-03-08T02:18:59;99452.25;;;5.56;100.00
11605;BME280;5858;43.076;25.626;2024-03-08T02:21:28;99449.53;;;5.48;100.00
11605;BME280;5858;43.076;25.626;2024-03-08T02:23:56;99456.50;;;5.49;100.00
11605;BME280;5858;43.076;25.626;2024-03-08T02:26:23;99503.53;;;5.84;100.00
11605;BME280;5858;43.076;25.626;2024-03-08T02:28:50;99468.97;;;5.66;100.00
11605;BME280;5858;43.076;25.626;2024-03-08T02:31:17;99488.75;;;5.81;100.00
11605;BME280;5858;43.076;25.626;2024-03-08T02:33:44;99467.13;;;5.76;100.00
11605;BME280;5858;43.076;25.626;2024-03-08T02:36:13;99440.50;;;5.68;100.00
11605;BME280;5858;43.076;25.626;2024-03-08T02:38:41;99508.00;;;6.11;100.00
11605;BME280;5858;43.076;25.626;2024-03-08T02:41:08;99422.34;;;5.36;100.00
11605;BME280;5858;43.076;25.626;2024-03-08T02:43:35;99496.91;;;5.97;100.00
11605;BME280;5858;43.076;25.626;2024-03-08T02:46:03;99410.47;;;5.40;100.00
11605;BME280;5858;43.076;25.626;2024-03-08T02:48:31;99432.47;;;5.50;100.00
11605;BME280;5858;43.076;25.626;2024-03-08T02:50:59;99470.91;;;5.74;100.00
11605;BME280;5858;43.076;25.626;2024-03-08T02:53:30;99387.09;;;5.16;100.00
11605;BME280;5858;43.076;25.626;2024-03-08T02:55:59;99464.75;;;5.73;100.00
11605;BME280;5858;43.076;25.626;2024-03-08T02:58:26;99403.97;;;5.25;100.00
11605;BME280;5858;43.076;25.626;2024-03-08T03:00:54;99466.16;;;5.67;100.00
11605;BME280;5858;43.076;25.626;2024-03-08T03:03:26;99337.97;;;4.94;100.00
11605;BME280;5858;43.076;25.626;2024-03-08T03:05:56;99325.78;;;5.01;100.00
11605;BME280;5858;43.076;25.626;2024-03-08T03:08:24;99472.81;;;5.81;100.00
11605;BME280;5858;43.076;25.626;2024-03-08T03:11:04;99460.38;;;5.54;100.00
11605;BME280;5858;43.076;25.626;2024-03-08T03:13:33;99473.41;;;5.75;100.00
11605;BME280;5858;43.076;25.626;2024-03-08T03:16:17;99464.16;;;5.79;100.00
11605;BME280;5858;43.076;25.626;2024-03-08T03:18:48;99507.94;;;5.75;100.00
11605;BME280;5858;43.076;25.626;2024-03-08T03:21:16;99541.25;;;6.15;100.00
11605;BME280;5858;43.076;25.626;2024-03-08T03:23:43;99518.69;;;6.28;100.00
11605;BME280;5858;43.076;25.626;2024-03-08T03:26:11;99353.75;;;5.14;100.00
11605;BME280;5858;43.076;25.626;2024-03-08T03:28:39;99355.44;;;5.15;100.00
11605;BME280;5858;43.076;25.626;2024-03-08T03:31:08;99475.38;;;6.00;100.00
11605;BME280;5858;43.076;25.626;2024-03-08T03:33:39;99411.91;;;5.52;100.00
11605;BME280;5858;43.076;25.626;2024-03-08T03:36:07;99419.56;;;5.37;100.00
11605;BME280;5858;43.076;25.626;2024-03-08T03:38:35;99474.72;;;5.89;100.00
11605;BME280;5858;43.076;25.626;2024-03-08T03:41:03;99409.94;;;5.36;100.00
11605;BME280;5858;43.076;25.626;2024-03-08T03:43:37;99429.53;;;5.26;100.00
11605;BME280;5858;43.076;25.626;2024-03-08T03:46:10;99381.06;;;4.96;100.00
11605;BME280;5858;43.076;25.626;2024-03-08T03:48:38;99389.75;;;5.26;100.00
11605;BME280;5858;43.076;25.626;2024-03-08T03:51:05;99522.78;;;5.95;100.00
11605;BME280;5858;43.076;25.626;2024-03-08T03:53:53;99521.41;;;5.91;100.00
11605;BME280;5858;43.076;25.626;2024-03-08T03:56:25;99378.50;;;5.04;100.00
11605;BME280;5858;43.076;25.626;2024-03-08T03:58:54;99335.09;;;4.78;100.00
11605;BME280;5858;43.076;25.626;2024-03-08T04:01:22;99393.81;;;5.20;100.00
11605;BME280;5858;43.076;25.626;2024-03-08T04:04:02;99513.47;;;5.82;100.00
11605;BME280;5858;43.076;25.626;2024-03-08T04:06:31;99389.47;;;4.92;100.00
11605;BME280;5858;43.076;25.626;2024-03-08T04:08:58;99520.13;;;5.68;100.00
11605;BME280;5858;43.076;25.626;2024-03-08T04:11:26;99522.78;;;5.68;100.00
11605;BME280;5858;43.076;25.626;2024-03-08T04:13:55;99540.38;;;5.69;100.00
11605;BME280;5858;43.076;25.626;2024-03-08T04:16:22;99469.13;;;5.37;100.00
11605;BME280;5858;43.076;25.626;2024-03-08T04:18:53;99415.59;;;5.14;100.00
11605;BME280;5858;43.076;25.626;2024-03-08T04:21:21;99418.09;;;5.16;100.00
11605;BME280;5858;43.076;25.626;2024-03-08T04:23:54;99337.06;;;4.66;100.00
11605;BME280;5858;43.076;25.626;2024-03-08T04:26:21;99429.41;;;5.18;100.00
11605;BME280;5858;43.076;25.626;2024-03-08T04:28:48;99411.75;;;4.99;100.00
11605;BME280;5858;43.076;25.626;2024-03-08T04:31:20;99516.19;;;5.35;100.00
11605;BME280;5858;43.076;25.626;2024-03-08T04:33:50;99416.25;;;4.89;100.00
11605;BME280;5858;43.076;25.626;2024-03-08T04:36:20;99520.38;;;5.37;100.00
11605;BME280;5858;43.076;25.626;2024-03-08T04:38:47;99430.34;;;4.89;100.00
11605;BME280;5858;43.076;25.626;2024-03-08T04:41:18;99462.25;;;5.07;100.00
11605;BME280;5858;43.076;25.626;2024-03-08T04:43:45;99509.63;;;5.39;100.00
11605;BME280;5858;43.076;25.626;2024-03-08T04:46:12;99508.78;;;5.38;100.00
11605;BME280;5858;43.076;25.626;2024-03-08T04:48:40;99462.25;;;5.07;100.00
11605;BME280;5858;43.076;25.626;2024-03-08T04:51:09;99375.81;;;4.30;100.00
11605;BME280;5858;43.076;25.626;2024-03-08T04:53:39;99515.94;;;5.19;100.00
11605;BME280;5858;43.076;25.626;2024-03-08T04:56:06;99456.19;;;4.78;100.00
11605;BME280;5858;43.076;25.626;2024-03-08T04:58:35;99488.53;;;4.91;100.00
11605;BME280;5858;43.076;25.626;2024-03-08T05:01:03;99342.97;;;3.94;100.00
11605;BME280;5858;43.076;25.626;2024-03-08T05:03:30;99516.66;;;5.11;100.00
11605;BME280;5858;43.076;25.626;2024-03-08T05:06:04;99475.16;;;4.83;100.00
11605;BME280;5858;43.076;25.626;2024-03-08T05:08:32;99387.22;;;4.21;100.00
11605;BME280;5858;43.076;25.626;2024-03-08T05:11:03;99452.03;;;4.75;100.00
11605;BME280;5858;43.076;25.626;2024-03-08T05:13:32;99381.78;;;4.23;100.00
11605;BME280;5858;43.076;25.626;2024-03-08T05:16:08;99507.69;;;4.75;100.00
11605;BME280;5858;43.076;25.626;2024-03-08T05:18:38;99568.16;;;5.28;100.00
11605;BME280;5858;43.076;25.626;2024-03-08T05:21:09;99463.44;;;4.66;100.00
11605;BME280;5858;43.076;25.626;2024-03-08T05:23:38;99389.34;;;4.18;100.00
11605;BME280;5858;43.076;25.626;2024-03-08T05:26:08;99558.28;;;5.01;100.00
11605;BME280;5858;43.076;25.626;2024-03-08T05:28:36;99462.78;;;4.45;100.00
11605;BME280;5858;43.076;25.626;2024-03-08T05:31:03;99564.44;;;5.01;100.00
11605;BME280;5858;43.076;25.626;2024-03-08T05:33:33;99405.78;;;4.11;100.00
11605;BME280;5858;43.076;25.626;2024-03-08T05:36:15;99416.78;;;4.17;100.00
11605;BME280;5858;43.076;25.626;2024-03-08T05:38:45;99433.25;;;4.10;100.00
11605;BME280;5858;43.076;25.626;2024-03-08T05:41:16;99508.78;;;4.63;100.00
11605;BME280;5858;43.076;25.626;2024-03-08T05:43:48;99476.88;;;4.45;100.00
11605;BME280;5858;43.076;25.626;2024-03-08T05:46:15;99501.00;;;4.52;100.00
11605;BME280;5858;43.076;25.626;2024-03-08T05:48:45;99406.34;;;3.96;100.00
11605;BME280;5858;43.076;25.626;2024-03-08T05:51:28;99616.34;;;5.14;100.00
11605;BME280;5858;43.076;25.626;2024-03-08T05:54:03;99436.16;;;3.98;100.00
11605;BME280;5858;43.076;25.626;2024-03-08T05:56:53;99428.91;;;4.09;100.00
11605;BME280;5858;43.076;25.626;2024-03-08T05:59:23;99509.06;;;4.50;100.00
11605;BME280;5858;43.076;25.626;2024-03-08T06:01:54;99565.03;;;4.76;100.00
11605;BME280;5858;43.076;25.626;2024-03-08T06:04:27;99431.97;;;4.15;100.00
11605;BME280;5858;43.076;25.626;2024-03-08T06:06:56;99599.44;;;5.05;100.00
11605;BME280;5858;43.076;25.626;2024-03-08T06:09:23;99436.16;;;4.07;100.00
11605;BME280;5858;43.076;25.626;2024-03-08T06:12:05;99482.31;;;4.43;100.00
11605;BME280;5858;43.076;25.626;2024-03-08T06:14:36;99572.38;;;5.01;100.00
11605;BME280;5858;43.076;25.626;2024-03-08T06:17:03;99621.50;;;5.34;100.00
11605;BME280;5858;43.076;25.626;2024-03-08T06:19:32;99579.34;;;5.02;100.00
11605;BME280;5858;43.076;25.626;2024-03-08T06:22:03;99596.22;;;5.11;100.00
11605;BME280;5858;43.076;25.626;2024-03-08T06:24:34;99637.97;;;5.38;100.00
11605;BME280;5858;43.076;25.626;2024-03-08T06:27:13;99562.50;;;4.84;100.00
11605;BME280;5858;43.076;25.626;2024-03-08T06:29:47;99569.34;;;4.77;100.00
11605;BME280;5858;43.076;25.626;2024-03-08T06:32:16;99648.88;;;5.25;100.00
11605;BME280;5858;43.076;25.626;2024-03-08T06:38:24;99565.56;;;4.80;100.00
11605;BME280;5858;43.076;25.626;2024-03-08T06:44:44;99443.97;;;3.99;100.00
11605;BME280;5858;43.076;25.626;2024-03-08T06:47:29;99645.09;;;5.18;100.00
11605;BME280;5858;43.076;25.626;2024-03-08T06:50:16;99655.44;;;5.21;100.00
11605;BME280;5858;43.076;25.626;2024-03-08T06:59:36;99465.84;;;4.11;100.00
11605;BME280;5858;43.076;25.626;2024-03-08T07:21:50;99674.00;;;5.21;100.00
11605;BME280;5858;43.076;25.626;2024-03-08T07:24:37;99693.56;;;5.20;100.00
11605;BME280;5858;43.076;25.626;2024-03-08T07:48:18;99511.66;;;3.92;100.00
11605;BME280;5858;43.076;25.626;2024-03-08T07:58:57;99510.44;;;4.06;100.00
11605;BME280;5858;43.076;25.626;2024-03-08T08:26:32;99600.72;;;5.01;100.00
11605;BME280;5858;43.076;25.626;2024-03-08T09:22:24;99635.22;;;5.67;100.00
11605;BME280;5858;43.076;25.626;2024-03-08T09:24:53;99657.63;;;5.55;100.00
11605;BME280;5858;43.076;25.626;2024-03-08T09:27:20;99740.94;;;6.10;100.00
11605;BME280;5858;43.076;25.626;2024-03-08T09:29:49;99740.66;;;6.13;100.00
11605;BME280;5858;43.076;25.626;2024-03-08T09:32:17;99744.59;;;6.19;100.00
11605;BME280;5858;43.076;25.626;2024-03-08T09:34:50;99643.91;;;5.59;100.00
11605;BME280;5858;43.076;25.626;2024-03-08T09:37:17;99749.88;;;6.28;100.00
11605;BME280;5858;43.076;25.626;2024-03-08T09:39:49;99650.91;;;5.60;100.00
11605;BME280;5858;43.076;25.626;2024-03-08T09:42:16;99675.03;;;5.67;100.00
11605;BME280;5858;43.076;25.626;2024-03-08T09:44:45;99636.34;;;5.64;100.00
11605;BME280;5858;43.076;25.626;2024-03-08T09:47:13;99643.63;;;5.72;100.00
11605;BME280;5858;43.076;25.626;2024-03-08T09:49:46;99584.28;;;5.54;100.00
11605;BME280;5858;43.076;25.626;2024-03-08T09:52:18;99663.84;;;5.83;100.00
11605;BME280;5858;43.076;25.626;2024-03-08T09:54:53;99656.53;;;6.04;100.00
11605;BME280;5858;43.076;25.626;2024-03-08T09:57:23;99575.91;;;5.49;100.00
11605;BME280;5858;43.076;25.626;2024-03-08T09:59:50;99630.34;;;5.72;100.00
11605;BME280;5858;43.076;25.626;2024-03-08T10:02:17;99662.66;;;6.05;100.00
11605;BME280;5858;43.076;25.626;2024-03-08T10:05:10;99616.53;;;5.59;100.00
11605;BME280;5858;43.076;25.626;2024-03-08T10:07:50;99628.81;;;5.69;100.00
11605;BME280;5858;43.076;25.626;2024-03-08T10:10:19;99629.13;;;5.57;100.00
11605;BME280;5858;43.076;25.626;2024-03-08T10:12:51;99769.22;;;6.48;100.00
11605;BME280;5858;43.076;25.626;2024-03-08T10:15:21;99781.38;;;6.51;100.00
11605;BME280;5858;43.076;25.626;2024-03-08T10:17:56;99669.69;;;5.86;100.00
11605;BME280;5858;43.076;25.626;2024-03-08T10:20:28;99677.81;;;5.85;100.00
11605;BME280;5858;43.076;25.626;2024-03-08T10:23:02;99774.41;;;6.50;100.00
11605;BME280;5858;43.076;25.626;2024-03-08T10:29:02;99697.47;;;6.11;100.00
11605;BME280;5858;43.076;25.626;2024-03-08T10:31:50;99580.81;;;5.44;100.00
11605;BME280;5858;43.076;25.626;2024-03-08T10:34:30;99615.03;;;5.47;100.00
11605;BME280;5858;43.076;25.626;2024-03-08T10:37:16;99757.16;;;6.54;100.00
11605;BME280;5858;43.076;25.626;2024-03-08T10:40:20;99649.44;;;5.85;100.00
11605;BME280;5858;43.076;25.626;2024-03-08T10:42:52;99607.72;;;5.68;100.00
11605;BME280;5858;43.076;25.626;2024-03-08T10:45:41;99711.63;;;6.02;100.00
11605;BME280;5858;43.076;25.626;2024-03-08T10:48:25;99728.53;;;6.01;100.00
11605;BME280;5858;43.076;25.626;2024-03-08T10:51:23;99658.03;;;5.50;100.00
11605;BME280;5858;43.076;25.626;2024-03-08T10:53:56;99636.44;;;4.97;100.00
11605;BME280;5858;43.076;25.626;2024-03-08T10:56:32;99777.75;;;5.86;100.00
11605;BME280;5858;43.076;25.626;2024-03-08T10:59:10;99694.25;;;5.32;100.00
11605;BME280;5858;43.076;25.626;2024-03-08T11:04:50;99779.84;;;5.73;100.00
11605;BME280;5858;43.076;25.626;2024-03-08T11:07:22;99789.50;;;5.83;100.00
11605;BME280;5858;43.076;25.626;2024-03-08T11:09:59;99612.03;;;4.74;100.00
11605;BME280;5858;43.076;25.626;2024-03-08T11:12:36;99796.06;;;5.79;100.00
11605;BME280;5858;43.076;25.626;2024-03-08T11:15:13;99614.53;;;4.85;100.00
11605;BME280;5858;43.076;25.626;2024-03-08T11:18:01;99598.06;;;4.72;100.00
11605;BME280;5858;43.076;25.626;2024-03-08T11:20:58;99574.78;;;4.76;100.00
11605;BME280;5858;43.076;25.626;2024-03-08T11:23:32;99575.06;;;4.82;100.00
11605;BME280;5858;43.076;25.626;2024-03-08T11:25:59;99591.78;;;4.92;100.00
11605;BME280;5858;43.076;25.626;2024-03-08T11:28:33;99713.34;;;5.55;100.00
11605;BME280;5858;43.076;25.626;2024-03-08T11:31:27;99658.63;;;5.15;100.00
11605;BME280;5858;43.076;25.626;2024-03-08T11:34:02;99734.03;;;5.71;100.00
11605;BME280;5858;43.076;25.626;2024-03-08T11:36:34;99793.00;;;5.93;100.00
11605;BME280;5858;43.076;25.626;2024-03-08T11:39:03;99678.31;;;5.42;100.00
11605;BME280;5858;43.076;25.626;2024-03-08T11:41:40;99755.38;;;5.98;100.00
11605;BME280;5858;43.076;25.626;2024-03-08T11:44:13;99703.53;;;5.84;100.00
11605;BME280;5858;43.076;25.626;2024-03-08T11:46:42;99669.75;;;5.57;100.00
11605;BME280;5858;43.076;25.626;2024-03-08T11:49:15;99680.09;;;5.70;100.00
11605;BME280;5858;43.076;25.626;2024-03-08T11:51:51;99759.94;;;6.25;100.00
11605;BME280;5858;43.076;25.626;2024-03-08T11:54:22;99765.66;;;6.30;100.00
11605;BME280;5858;43.076;25.626;2024-03-08T11:56:55;99717.19;;;6.09;100.00
11605;BME280;5858;43.076;25.626;2024-03-08T11:59:27;99725.69;;;6.12;100.00
11605;BME280;5858;43.076;25.626;2024-03-08T12:02:03;99734.31;;;6.34;100.00
11605;BME280;5858;43.076;25.626;2024-03-08T12:04:31;99751.41;;;6.58;100.00
11605;BME280;5858;43.076;25.626;2024-03-08T12:07:01;99705.78;;;6.36;100.00
11605;BME280;5858;43.076;25.626;2024-03-08T12:09:34;99740.28;;;6.45;100.00
11605;BME280;5858;43.076;25.626;2024-03-08T12:12:02;99577.59;;;5.50;100.00
11605;BME280;5858;43.076;25.626;2024-03-08T12:14:30;99667.63;;;5.90;100.00
11605;BME280;5858;43.076;25.626;2024-03-08T12:17:09;99651.41;;;5.83;100.00
11605;BME280;5858;43.076;25.626;2024-03-08T12:19:36;99705.56;;;6.10;100.00
11605;BME280;5858;43.076;25.626;2024-03-08T12:22:26;99594.97;;;5.25;100.00
11605;BME280;5858;43.076;25.626;2024-03-08T12:25:03;99728.22;;;6.14;100.00
11605;BME280;5858;43.076;25.626;2024-03-08T12:27:39;99758.00;;;6.17;100.00
11605;BME280;5858;43.076;25.626;2024-03-08T12:30:25;99582.72;;;5.04;100.00
11605;BME280;5858;43.076;25.626;2024-03-08T12:32:55;99754.53;;;6.17;100.00
11605;BME280;5858;43.076;25.626;2024-03-08T12:35:24;99731.06;;;5.83;100.00
11605;BME280;5858;43.076;25.626;2024-03-08T12:37:54;99606.28;;;5.27;100.00
11605;BME280;5858;43.076;25.626;2024-03-08T12:40:42;99572.38;;;5.01;100.00
11605;BME280;5858;43.076;25.626;2024-03-08T12:43:17;99766.41;;;6.03;100.00
11605;BME280;5858;43.076;25.626;2024-03-08T12:45:44;99682.31;;;5.65;100.00
11605;BME280;5858;43.076;25.626;2024-03-08T12:48:13;99615.66;;;5.21;100.00
11605;BME280;5858;43.076;25.626;2024-03-08T12:50:50;99666.44;;;5.46;100.00
11605;BME280;5858;43.076;25.626;2024-03-08T12:53:24;99724.22;;;5.81;100.00
11605;BME280;5858;43.076;25.626;2024-03-08T12:55:54;99636.44;;;5.26;100.00
11605;BME280;5858;43.076;25.626;2024-03-08T12:58:25;99718.34;;;5.87;100.00
11605;BME280;5858;43.076;25.626;2024-03-08T13:01:02;99683.00;;;5.67;100.00
11605;BME280;5858;43.076;25.626;2024-03-08T13:03:32;99757.56;;;6.12;100.00
11605;BME280;5858;43.076;25.626;2024-03-08T13:06:07;99649.56;;;5.27;100.00
11605;BME280;5858;43.076;25.626;2024-03-08T13:08:55;99763.31;;;6.08;100.00
11605;BME280;5858;43.076;25.626;2024-03-08T13:11:28;99741.56;;;5.85;100.00
11605;BME280;5858;43.076;25.626;2024-03-08T13:14:01;99643.44;;;5.27;100.00
11605;BME280;5858;43.076;25.626;2024-03-08T13:16:31;99742.81;;;5.90;100.00
11605;BME280;5858;43.076;25.626;2024-03-08T13:19:00;99597.66;;;4.96;100.00
11605;BME280;5858;43.076;25.626;2024-03-08T13:21:29;99746.31;;;5.72;100.00
11605;BME280;5858;43.076;25.626;2024-03-08T13:24:04;99697.31;;;5.47;100.00
11605;BME280;5858;43.076;25.626;2024-03-08T13:26:38;99701.19;;;5.62;100.00
11605;BME280;5858;43.076;25.626;2024-03-08T13:29:07;99661.31;;;5.25;100.00
11605;BME280;5858;43.076;25.626;2024-03-08T13:31:34;99783.63;;;5.80;100.00
11605;BME280;5858;43.076;25.626;2024-03-08T13:34:02;99661.00;;;5.09;100.00
11605;BME280;5858;43.076;25.626;2024-03-08T13:36:30;99602.25;;;4.94;100.00
11605;BME280;5858;43.076;25.626;2024-03-08T13:39:06;99666.03;;;5.12;100.00
11605;BME280;5858;43.076;25.626;2024-03-08T13:41:40;99712.81;;;5.32;100.00
11605;BME280;5858;43.076;25.626;2024-03-08T13:44:07;99759.31;;;5.75;100.00
11605;BME280;5858;43.076;25.626;2024-03-08T13:46:34;99722.16;;;5.46;100.00
11605;BME280;5858;43.076;25.626;2024-03-08T13:49:03;99772.59;;;5.75;100.00
11605;BME280;5858;43.076;25.626;2024-03-08T13:51:38;99724.81;;;5.55;100.00
11605;BME280;5858;43.076;25.626;2024-03-08T13:54:22;99583.81;;;4.63;100.00
11605;BME280;5858;43.076;25.626;2024-03-08T13:57:00;99661.84;;;4.99;100.00
11605;BME280;5858;43.076;25.626;2024-03-08T13:59:36;99629.34;;;4.88;100.00
11605;BME280;5858;43.076;25.626;2024-03-08T14:02:04;99694.13;;;5.24;100.00
11605;BME280;5858;43.076;25.626;2024-03-08T14:04:38;99701.09;;;5.25;100.00
11605;BME280;5858;43.076;25.626;2024-03-08T14:07:07;99577.28;;;4.48;100.00
11605;BME280;5858;43.076;25.626;2024-03-08T14:09:36;99687.53;;;5.18;100.00
11605;BME280;5858;43.076;25.626;2024-03-08T14:12:08;99735.16;;;5.49;100.00
11605;BME280;5858;43.076;25.626;2024-03-08T14:14:37;99632.69;;;4.80;100.00
11605;BME280;5858;43.076;25.626;2024-03-08T14:17:07;99757.34;;;5.67;100.00
11605;BME280;5858;43.076;25.626;2024-03-08T14:19:37;99709.88;;;5.25;100.00
11605;BME280;5858;43.076;25.626;2024-03-08T14:22:05;99758.47;;;5.64;100.00
11605;BME280;5858;43.076;25.626;2024-03-08T14:24:33;99626.41;;;4.91;100.00
11605;BME280;5858;43.076;25.626;2024-03-08T14:27:02;99612.59;;;4.78;100.00
11605;BME280;5858;43.076;25.626;2024-03-08T14:29:29;99766.84;;;5.60;100.00
11605;BME280;5858;43.076;25.626;2024-03-08T14:31:58;99750.94;;;5.69;100.00
11605;BME280;5858;43.076;25.626;2024-03-08T14:34:48;99581.31;;;4.52;100.00
11605;BME280;5858;43.076;25.626;2024-03-08T14:37:15;99736.94;;;5.58;100.00
11605;BME280;5858;43.076;25.626;2024-03-08T14:39:47;99705.25;;;5.47;100.00
11605;BME280;5858;43.076;25.626;2024-03-08T14:42:29;99631.97;;;4.78;100.00
11605;BME280;5858;43.076;25.626;2024-03-08T14:44:56;99551.31;;;4.61;100.00
11605;BME280;5858;43.076;25.626;2024-03-08T14:47:23;99671.91;;;5.25;100.00
11605;BME280;5858;43.076;25.626;2024-03-08T14:49:56;99571.16;;;4.77;100.00
11605;BME280;5858;43.076;25.626;2024-03-08T14:52:24;99706.78;;;5.49;100.00
11605;BME280;5858;43.076;25.626;2024-03-08T14:54:57;99664.78;;;5.06;100.00
11605;BME280;5858;43.076;25.626;2024-03-08T14:57:25;99653.06;;;5.09;100.00
11605;BME280;5858;43.076;25.626;2024-03-08T14:59:52;99574.34;;;4.51;100.00
11605;BME280;5858;43.076;25.626;2024-03-08T15:02:19;99753.16;;;5.64;100.00
11605;BME280;5858;43.076;25.626;2024-03-08T15:04:47;99653.34;;;5.05;100.00
11605;BME280;5858;43.076;25.626;2024-03-08T15:07:22;99764.88;;;5.62;100.00
11605;BME280;5858;43.076;25.626;2024-03-08T15:09:49;99702.50;;;5.29;100.00
11605;BME280;5858;43.076;25.626;2024-03-08T15:12:19;99614.38;;;4.67;100.00
11605;BME280;5858;43.076;25.626;2024-03-08T15:14:50;99566.38;;;4.41;100.00
11605;BME280;5858;43.076;25.626;2024-03-08T15:17:21;99761.13;;;5.45;100.00
11605;BME280;5858;43.076;25.626;2024-03-08T15:20:17;99688.91;;;5.13;100.00
11605;BME280;5858;43.076;25.626;2024-03-08T15:22:50;99666.16;;;4.91;100.00
11605;BME280;5858;43.076;25.626;2024-03-08T15:25:19;99601.38;;;4.26;100.00
11605;BME280;5858;43.076;25.626;2024-03-08T15:27:53;99657.94;;;4.74;100.00
11605;BME280;5858;43.076;25.626;2024-03-08T15:30:21;99667.00;;;4.91;100.00
11605;BME280;5858;43.076;25.626;2024-03-08T15:32:52;99580.88;;;4.28;100.00
11605;BME280;5858;43.076;25.626;2024-03-08T15:35:40;99775.94;;;5.48;100.00
11605;BME280;5858;43.076;25.626;2024-03-08T15:38:12;99702.47;;;5.10;100.00
11605;BME280;5858;43.076;25.626;2024-03-08T15:40:44;99785.28;;;5.42;100.00
11605;BME280;5858;43.076;25.626;2024-03-08T15:43:11;99639.06;;;4.58;100.00
11605;BME280;5858;43.076;25.626;2024-03-08T15:45:43;99733.44;;;4.99;100.00
11605;BME280;5858;43.076;25.626;2024-03-08T15:48:10;99645.19;;;4.49;100.00
11605;BME280;5858;43.076;25.626;2024-03-08T15:50:37;99652.38;;;4.28;100.00